createdAt,value
2022-10-29T00:02:12.247Z,79.25
2022-10-29T00:04:38.695Z,80.86
2022-10-29T00:07:05.164Z,80.19
2022-10-29T00:09:31.863Z,82.48
2022-10-29T00:11:58.386Z,81.35
2022-10-29T00:14:24.839Z,82.82
2022-10-29T00:16:51.360Z,81.24
2022-10-29T00:19:17.845Z,83.91
2022-10-29T00:21:44.313Z,83.52
2022-10-29T00:24:11.004Z,80.68
2022-10-29T00:26:37.510Z,83.54
2022-10-29T00:29:03.991Z,83.13
2022-10-29T00:31:31.087Z,81.61
2022-10-29T00:33:57.745Z,83.42
2022-10-29T00:36:27.234Z,80.66
2022-10-29T00:38:54.854Z,78.79
2022-10-29T00:41:26.381Z,80.50
2022-10-29T00:44:33.694Z,82.05
2022-10-29T00:47:19.837Z,81.94
2022-10-29T00:49:48.696Z,83.23
2022-10-29T00:52:15.998Z,82.67
2022-10-29T00:54:43.972Z,80.93
2022-10-29T00:57:19.113Z,82.28
2022-10-29T00:59:47.054Z,79.85
2022-10-29T01:02:13.667Z,79.20
2022-10-29T01:04:40.390Z,80.14
2022-10-29T01:07:06.977Z,79.73
2022-10-29T01:09:33.423Z,81.16
2022-10-29T01:12:09.347Z,79.81
2022-10-29T01:14:51.899Z,80.59
2022-10-29T01:17:33.547Z,80.08
2022-10-29T01:20:34.257Z,80.49
2022-10-29T01:23:40.260Z,81.64
2022-10-29T01:26:44.314Z,80.13
2022-10-29T01:29:39.421Z,80.07
2022-10-29T01:32:12.629Z,81.26
2022-10-29T01:34:51.762Z,80.49
2022-10-29T01:37:32.551Z,80.50
2022-10-29T01:40:07.489Z,80.93
2022-10-29T01:42:44.174Z,80.00
2022-10-29T01:45:26.899Z,82.14
2022-10-29T01:48:00.638Z,81.75
2022-10-29T01:50:27.368Z,79.77
2022-10-29T01:52:54.682Z,81.41
2022-10-29T01:55:23.588Z,82.64
2022-10-29T01:57:50.057Z,82.28
2022-10-29T02:00:18.572Z,81.54
2022-10-29T02:02:48.657Z,79.97
2022-10-29T02:05:28.765Z,81.64
2022-10-29T02:07:59.415Z,80.19
2022-10-29T02:10:33.156Z,81.18
2022-10-29T02:12:59.918Z,79.30
2022-10-29T02:15:40.853Z,79.99
2022-10-29T02:18:08.280Z,80.21
2022-10-29T02:20:35.348Z,82.38
2022-10-29T02:23:01.806Z,78.44
2022-10-29T02:25:28.321Z,78.39
2022-10-29T02:27:55.013Z,80.46
2022-10-29T02:30:21.622Z,79.36
2022-10-29T02:32:48.108Z,78.29
2022-10-29T02:35:14.669Z,80.72
2022-10-29T02:37:41.132Z,81.24
2022-10-29T02:40:08.471Z,80.03
2022-10-29T02:42:34.981Z,78.16
2022-10-29T02:45:01.476Z,76.92
2022-10-29T02:47:28.255Z,76.80
2022-10-29T02:49:54.732Z,76.79
2022-10-29T02:52:21.205Z,76.53
2022-10-29T02:54:47.693Z,76.57
2022-10-29T02:57:14.165Z,76.72
2022-10-29T02:59:40.707Z,76.59
2022-10-29T03:02:07.266Z,76.93
2022-10-29T03:04:33.942Z,77.10
2022-10-29T03:07:00.769Z,76.98
2022-10-29T03:09:27.229Z,77.65
2022-10-29T03:11:53.659Z,78.29
2022-10-29T03:14:20.122Z,77.53
2022-10-29T03:16:46.564Z,77.38
2022-10-29T03:19:13.055Z,75.71
2022-10-29T03:21:39.557Z,76.29
2022-10-29T03:24:06.311Z,76.02
2022-10-29T03:26:32.798Z,76.26
2022-10-29T03:28:59.508Z,77.46
2022-10-29T03:31:25.941Z,77.17
2022-10-29T03:33:52.484Z,77.27
2022-10-29T03:36:19.021Z,77.88
2022-10-29T03:38:45.505Z,78.17
2022-10-29T03:41:11.971Z,79.00
2022-10-29T03:43:39.141Z,77.88
2022-10-29T03:46:06.094Z,77.22
2022-10-29T03:48:32.618Z,78.13
2022-10-29T03:51:01.600Z,78.76
2022-10-29T03:53:29.040Z,78.26
2022-10-29T03:55:56.562Z,78.37
2022-10-29T03:58:23.260Z,77.78
2022-10-29T04:01:07.316Z,78.44
2022-10-29T04:03:35.239Z,77.84
2022-10-29T04:06:03.028Z,78.24
2022-10-29T04:08:29.461Z,78.04
2022-10-29T04:10:55.942Z,78.63
2022-10-29T04:13:22.431Z,78.53
2022-10-29T04:15:48.899Z,79.69
2022-10-29T04:18:15.367Z,78.98
2022-10-29T04:22:03.246Z,79.65
2022-10-29T04:29:02.054Z,77.75
2022-10-29T04:31:28.530Z,77.64
2022-10-29T04:33:55.025Z,76.92
2022-10-29T04:36:21.558Z,76.40
2022-10-29T04:38:47.998Z,76.50
2022-10-29T04:41:14.456Z,76.20
2022-10-29T04:43:40.891Z,78.43
2022-10-29T04:46:07.353Z,78.56
2022-10-29T04:48:33.829Z,77.91
2022-10-29T04:51:00.420Z,78.78
2022-10-29T04:53:26.901Z,77.62
2022-10-29T04:56:01.808Z,77.95
2022-10-29T04:58:28.451Z,77.98
2022-10-29T05:01:01.131Z,78.41
2022-10-29T05:03:27.675Z,80.07
2022-10-29T05:05:54.123Z,80.23
2022-10-29T05:08:21.557Z,80.18
2022-10-29T05:10:48.032Z,80.77
2022-10-29T05:13:14.558Z,80.50
2022-10-29T05:15:41.394Z,79.77
2022-10-29T05:18:09.071Z,79.50
2022-10-29T05:20:35.892Z,81.06
2022-10-29T05:23:08.217Z,82.80
2022-10-29T05:25:36.621Z,81.03
2022-10-29T05:28:07.995Z,82.24
2022-10-29T05:30:35.525Z,82.17
2022-10-29T05:33:02.000Z,81.71
2022-10-29T05:35:28.761Z,80.82
2022-10-29T05:37:56.274Z,80.94
2022-10-29T05:40:23.839Z,79.41
2022-10-29T05:42:50.527Z,80.40
2022-10-29T05:45:17.508Z,81.84
2022-10-29T05:47:44.455Z,79.78
2022-10-29T05:50:12.063Z,81.10
2022-10-29T05:52:38.985Z,80.76
2022-10-29T05:55:06.309Z,81.12
2022-10-29T05:57:32.792Z,81.69
2022-10-29T05:59:59.242Z,82.06
2022-10-29T06:02:25.952Z,82.33
2022-10-29T06:04:52.508Z,81.87
2022-10-29T06:07:19.004Z,80.91
2022-10-29T06:09:45.424Z,80.87
2022-10-29T06:12:11.894Z,80.37
2022-10-29T06:14:38.339Z,79.53
2022-10-29T06:17:04.794Z,79.04
2022-10-29T06:19:31.270Z,79.65
2022-10-29T06:22:00.321Z,80.11
2022-10-29T06:24:27.461Z,79.01
2022-10-29T06:26:54.571Z,79.81
2022-10-29T06:29:21.045Z,80.32
2022-10-29T06:31:47.512Z,80.38
2022-10-29T06:34:14.765Z,81.84
2022-10-29T06:36:41.385Z,80.65
2022-10-29T06:39:07.903Z,80.82
2022-10-29T06:41:34.362Z,80.76
2022-10-29T06:44:00.866Z,81.14
2022-10-29T06:46:27.326Z,80.91
2022-10-29T06:48:53.891Z,81.37
2022-10-29T06:51:20.378Z,80.37
2022-10-29T06:53:46.838Z,80.18
2022-10-29T06:56:13.293Z,80.75
2022-10-29T06:58:39.744Z,79.42
2022-10-29T07:01:06.340Z,80.84
2022-10-29T07:03:32.856Z,80.95
2022-10-29T07:06:00.089Z,82.12
2022-10-29T07:08:26.951Z,81.78
2022-10-29T07:10:54.113Z,81.78
2022-10-29T07:13:20.707Z,82.06
2022-10-29T07:15:47.168Z,83.55
2022-10-29T07:18:13.749Z,83.12
2022-10-29T07:20:42.350Z,80.56
2022-10-29T07:23:09.812Z,80.31
2022-10-29T07:25:37.327Z,81.41
2022-10-29T07:28:17.306Z,82.62
2022-10-29T07:30:44.700Z,84.06
2022-10-29T07:33:11.268Z,84.10
2022-10-29T07:35:39.096Z,83.41
2022-10-29T07:38:10.778Z,82.95
2022-10-29T07:40:39.211Z,83.56
2022-10-29T07:43:05.757Z,83.89
2022-10-29T07:45:33.781Z,84.61
2022-10-29T07:48:02.915Z,84.64
2022-10-29T07:50:31.173Z,86.06
2022-10-29T07:53:01.643Z,84.73
2022-10-29T07:58:01.528Z,85.81
2022-10-29T08:00:36.452Z,86.95
2022-10-29T08:03:03.431Z,87.29
2022-10-29T08:05:30.826Z,86.50
2022-10-29T08:07:58.090Z,85.28
2022-10-29T08:10:25.141Z,84.68
2022-10-29T08:12:57.072Z,86.78
2022-10-29T08:15:24.688Z,86.10
2022-10-29T08:17:51.544Z,85.47
2022-10-29T08:20:18.820Z,86.75
2022-10-29T08:22:45.441Z,84.67
2022-10-29T08:25:12.586Z,83.26
2022-10-29T08:27:39.189Z,83.38
2022-10-29T08:30:07.344Z,85.18
2022-10-29T08:32:33.874Z,86.12
2022-10-29T08:35:00.353Z,87.08
2022-10-29T08:37:27.056Z,85.78
2022-10-29T08:39:53.672Z,85.43
2022-10-29T08:42:41.896Z,83.95
2022-10-29T08:45:21.028Z,83.28
2022-10-29T08:47:53.679Z,83.19
2022-10-29T08:50:27.547Z,83.33
2022-10-29T08:53:19.417Z,83.28
2022-10-29T08:55:41.081Z,83.67
2022-10-29T08:58:20.634Z,83.11
2022-10-29T09:00:49.885Z,82.73
2022-10-29T09:03:16.398Z,80.97
2022-10-29T09:05:55.390Z,79.94
2022-10-29T09:08:30.223Z,81.54
2022-10-29T09:10:58.331Z,81.89
2022-10-29T09:13:36.411Z,83.26
2022-10-29T09:16:08.935Z,82.98
2022-10-29T09:18:59.124Z,84.48
2022-10-29T09:21:45.772Z,84.01
2022-10-29T09:24:24.248Z,82.38
2022-10-29T09:27:04.280Z,81.90
2022-10-29T09:29:44.641Z,81.62
2022-10-29T09:32:20.295Z,81.22
2022-10-29T09:35:04.110Z,82.66
2022-10-29T09:37:45.214Z,82.80
2022-10-29T09:40:35.242Z,85.08
2022-10-29T09:43:08.469Z,84.43
2022-10-29T09:46:02.529Z,83.49
2022-10-29T09:48:37.131Z,83.77
2022-10-29T09:51:35.227Z,84.28
2022-10-29T09:54:02.647Z,82.88
2022-10-29T09:56:29.709Z,82.13
2022-10-29T09:59:31.327Z,82.25
2022-10-29T10:02:01.871Z,82.26
2022-10-29T10:04:34.256Z,82.52
2022-10-29T10:07:07.325Z,82.15
2022-10-29T10:10:01.395Z,82.07
2022-10-29T10:12:37.594Z,80.17
2022-10-29T10:15:10.172Z,79.69
2022-10-29T10:18:00.299Z,79.27
2022-10-29T10:20:33.202Z,77.79
2022-10-29T10:23:01.332Z,78.38
2022-10-29T10:25:37.335Z,77.82
2022-10-29T10:28:16.425Z,76.91
2022-10-29T10:30:43.557Z,76.38
2022-10-29T10:33:28.862Z,75.39
2022-10-29T10:35:55.901Z,75.63
2022-10-29T10:38:23.202Z,77.92
2022-10-29T10:41:04.826Z,77.31
2022-10-29T10:43:31.447Z,76.19
2022-10-29T10:46:00.001Z,74.73
2022-10-29T10:48:33.335Z,73.50
2022-10-29T10:51:30.548Z,73.54
2022-10-29T10:53:59.788Z,74.09
2022-10-29T10:56:26.329Z,72.66
2022-10-29T10:59:08.379Z,70.92
2022-10-29T11:01:41.582Z,70.60
2022-10-29T11:04:15.519Z,70.93
2022-10-29T11:06:45.178Z,69.74
2022-10-29T11:09:23.867Z,70.33
2022-10-29T11:11:59.275Z,70.63
2022-10-29T11:14:58.306Z,68.33
2022-10-29T11:17:35.445Z,70.14
2022-10-29T11:20:23.207Z,70.30
2022-10-29T11:23:16.472Z,71.40
2022-10-29T11:25:51.131Z,69.53
2022-10-29T11:28:53.086Z,70.13
2022-10-29T11:31:27.808Z,69.49
2022-10-29T11:34:15.655Z,69.83
2022-10-29T11:36:55.288Z,69.24
2022-10-29T11:39:27.457Z,70.10
2022-10-29T11:42:01.011Z,69.23
2022-10-29T11:44:28.113Z,69.83
2022-10-29T11:47:14.156Z,68.16
2022-10-29T11:49:59.473Z,68.07
2022-10-29T11:52:35.641Z,67.17
2022-10-29T11:55:05.443Z,67.39
2022-10-29T11:57:38.036Z,68.56
2022-10-29T12:00:18.352Z,68.44
2022-10-29T12:03:03.496Z,68.96
2022-10-29T12:05:36.261Z,68.98
2022-10-29T12:08:24.739Z,69.86
2022-10-29T12:11:02.669Z,69.86
2022-10-29T12:14:14.262Z,69.39
2022-10-29T12:16:40.673Z,69.48
2022-10-29T12:19:13.184Z,69.29
2022-10-29T12:21:39.588Z,69.99
2022-10-29T12:24:21.444Z,69.83
2022-10-29T12:27:05.462Z,70.10
2022-10-29T12:29:47.851Z,69.44
2022-10-29T12:32:23.040Z,69.80
2022-10-29T12:34:53.984Z,70.71
2022-10-29T12:37:40.385Z,70.29
2022-10-29T12:40:16.936Z,70.25
2022-10-29T12:42:44.006Z,70.39
2022-10-29T12:45:23.332Z,70.05
2022-10-29T12:48:00.640Z,70.98
2022-10-29T12:50:42.296Z,70.91
2022-10-29T12:53:29.222Z,70.85
2022-10-29T12:55:57.191Z,71.06
2022-10-29T12:58:42.544Z,70.63
2022-10-29T13:01:49.943Z,71.53
2022-10-29T13:04:26.169Z,71.26
2022-10-29T13:07:23.055Z,70.53
2022-10-29T13:09:50.249Z,70.54
2022-10-29T13:12:57.038Z,69.84
2022-10-29T13:15:37.477Z,69.09
2022-10-29T13:18:14.586Z,69.65
2022-10-29T13:20:43.698Z,69.08
2022-10-29T13:23:22.311Z,70.62
2022-10-29T13:25:55.715Z,70.48
2022-10-29T13:28:22.131Z,69.63
2022-10-29T13:30:50.622Z,69.99
2022-10-29T13:33:26.353Z,70.32
2022-10-29T13:35:56.822Z,69.47
2022-10-29T13:38:58.663Z,69.86
2022-10-29T13:41:42.589Z,70.40
2022-10-29T13:44:09.721Z,70.38
2022-10-29T13:46:45.491Z,70.39
2022-10-29T13:49:16.248Z,72.07
2022-10-29T13:51:59.910Z,71.80
2022-10-29T13:54:40.046Z,70.71
2022-10-29T13:57:12.491Z,70.23
2022-10-29T13:59:45.861Z,70.49
2022-10-29T14:02:31.754Z,69.94
2022-10-29T14:05:20.863Z,69.96
2022-10-29T14:08:06.171Z,71.30
2022-10-29T14:10:35.764Z,71.10
2022-10-29T14:13:28.513Z,70.65
2022-10-29T14:16:07.354Z,70.31
2022-10-29T14:18:41.343Z,70.49
2022-10-29T14:21:15.830Z,70.66
2022-10-29T14:23:54.792Z,69.90
2022-10-29T14:26:21.309Z,69.59
2022-10-29T14:28:47.784Z,69.78
2022-10-29T14:31:16.472Z,69.32
2022-10-29T14:33:52.926Z,70.41
2022-10-29T14:36:38.780Z,69.95
2022-10-29T14:39:15.001Z,70.17
2022-10-29T14:41:41.527Z,70.98
2022-10-29T14:44:15.745Z,71.19
2022-10-29T14:46:42.705Z,71.14
2022-10-29T14:49:15.770Z,71.17
2022-10-29T14:51:52.792Z,70.66
2022-10-29T14:54:38.199Z,72.15
2022-10-29T14:57:10.076Z,71.05
2022-10-29T14:59:36.614Z,70.66
2022-10-29T15:02:32.158Z,71.50
2022-10-29T15:04:57.075Z,71.80
2022-10-29T15:07:23.583Z,72.00
2022-10-29T15:09:51.349Z,71.45
2022-10-29T15:12:24.068Z,71.43
2022-10-29T15:14:52.470Z,71.52
2022-10-29T15:17:24.711Z,71.12
2022-10-29T15:19:57.426Z,71.51
2022-10-29T15:22:29.695Z,71.76
2022-10-29T15:24:56.340Z,71.31
2022-10-29T15:27:24.517Z,71.76
2022-10-29T15:29:52.472Z,71.83
2022-10-29T15:32:19.092Z,72.16
2022-10-29T15:34:50.798Z,72.63
2022-10-29T15:37:24.711Z,73.53
2022-10-29T15:39:57.344Z,73.00
2022-10-29T15:42:30.335Z,72.68
2022-10-29T15:47:44.503Z,73.00
2022-10-29T15:50:13.687Z,73.91
2022-10-29T15:52:43.660Z,73.50
2022-10-29T15:55:12.827Z,73.19
2022-10-29T15:57:39.382Z,73.85
2022-10-29T16:00:07.087Z,73.81
2022-10-29T16:02:33.757Z,73.11
2022-10-29T16:05:00.265Z,73.46
2022-10-29T16:07:26.963Z,74.04
2022-10-29T16:09:54.574Z,73.40
2022-10-29T16:12:20.990Z,73.65
2022-10-29T16:14:47.470Z,74.35
2022-10-29T16:17:15.684Z,75.29
2022-10-29T16:19:42.695Z,74.75
2022-10-29T16:22:13.455Z,74.82
2022-10-29T16:24:39.976Z,74.81
2022-10-29T16:27:24.576Z,75.20
2022-10-29T16:29:51.755Z,74.56
2022-10-29T16:32:21.537Z,74.78
2022-10-29T16:34:48.127Z,75.02
2022-10-29T16:37:19.450Z,74.84
2022-10-29T16:39:45.971Z,74.47
2022-10-29T16:42:21.436Z,75.84
2022-10-29T16:44:48.061Z,75.10
2022-10-29T16:47:14.558Z,76.46
2022-10-29T16:49:41.097Z,75.77
2022-10-29T16:52:09.460Z,76.00
2022-10-29T16:54:36.246Z,75.56
2022-10-29T16:57:02.708Z,75.86
2022-10-29T16:59:30.301Z,75.86
2022-10-29T17:01:56.765Z,75.77
2022-10-29T17:04:23.406Z,76.44
2022-10-29T17:06:49.972Z,75.81
2022-10-29T17:09:21.792Z,75.44
2022-10-29T17:11:51.123Z,75.81
2022-10-29T17:14:17.569Z,76.24
2022-10-29T17:16:44.023Z,76.02
2022-10-29T17:19:10.468Z,76.25
2022-10-29T17:21:36.922Z,76.79
2022-10-29T17:24:06.917Z,76.68
2022-10-29T17:26:34.650Z,77.23
2022-10-29T17:29:01.184Z,76.86
2022-10-29T17:31:27.678Z,77.44
2022-10-29T17:33:54.158Z,78.08
2022-10-29T17:36:20.691Z,77.54
2022-10-29T17:41:17.135Z,76.73
2022-10-29T17:43:43.568Z,77.03
2022-10-29T17:46:10.037Z,77.01
2022-10-29T17:48:36.865Z,76.99
2022-10-29T17:51:03.429Z,76.49
2022-10-29T17:53:31.118Z,76.71
2022-10-29T17:55:59.802Z,76.46
2022-10-29T17:58:26.543Z,76.77
2022-10-29T18:00:53.337Z,77.35
2022-10-29T18:03:19.764Z,77.76
2022-10-29T18:05:47.101Z,77.86
2022-10-29T18:08:13.538Z,77.86
2022-10-29T18:10:40.010Z,77.98
2022-10-29T18:13:06.534Z,78.54
2022-10-29T18:15:33.075Z,79.33
2022-10-29T18:18:00.710Z,78.01
2022-10-29T18:20:27.190Z,78.47
2022-10-29T18:22:55.918Z,78.68
2022-10-29T18:25:22.620Z,78.47
2022-10-29T18:27:49.244Z,78.69
2022-10-29T18:30:16.172Z,78.01
2022-10-29T18:32:42.713Z,78.15
2022-10-29T18:35:09.806Z,77.68
2022-10-29T18:37:36.251Z,78.76
2022-10-29T18:40:02.685Z,78.35
2022-10-29T18:42:30.395Z,79.53
2022-10-29T18:44:57.028Z,78.10
2022-10-29T18:47:23.480Z,78.21
2022-10-29T18:49:50.007Z,78.61
2022-10-29T18:52:16.470Z,78.88
2022-10-29T18:54:42.997Z,78.98
2022-10-29T18:57:09.577Z,77.95
2022-10-29T18:59:36.177Z,78.63
2022-10-29T19:02:02.782Z,78.14
2022-10-29T19:04:29.503Z,78.47
2022-10-29T19:06:55.981Z,79.03
2022-10-29T19:09:22.511Z,78.91
2022-10-29T19:11:55.244Z,78.67
2022-10-29T19:14:24.879Z,79.02
2022-10-29T19:16:51.320Z,79.25
2022-10-29T19:19:21.202Z,78.79
2022-10-29T19:21:50.300Z,79.24
2022-10-29T19:24:17.432Z,79.26
2022-10-29T19:26:44.412Z,79.54
2022-10-29T19:29:11.509Z,79.51
2022-10-29T19:31:38.364Z,79.36
2022-10-29T19:34:06.456Z,78.99
2022-10-29T19:36:34.598Z,79.67
2022-10-29T19:39:01.627Z,79.50
2022-10-29T19:41:28.244Z,78.86
2022-10-29T19:43:58.690Z,79.66
2022-10-29T19:46:25.416Z,78.98
2022-10-29T19:48:53.647Z,79.78
2022-10-29T19:51:20.988Z,80.22
2022-10-29T19:53:47.663Z,79.88
2022-10-29T19:56:15.842Z,79.65
2022-10-29T19:58:42.396Z,78.96
2022-10-29T20:01:11.856Z,79.61
2022-10-29T20:03:38.466Z,78.87
2022-10-29T20:06:06.503Z,79.21
2022-10-29T20:08:33.154Z,78.76
2022-10-29T20:11:00.196Z,79.53
2022-10-29T20:13:27.252Z,79.20
2022-10-29T20:15:53.933Z,78.47
2022-10-29T20:18:20.766Z,77.85
2022-10-29T20:20:53.897Z,78.77
2022-10-29T20:23:20.384Z,78.49
2022-10-29T20:25:46.926Z,79.29
2022-10-29T20:28:13.592Z,77.74
2022-10-29T20:30:40.028Z,78.84
2022-10-29T20:33:06.493Z,78.32
2022-10-29T20:35:32.991Z,78.84
2022-10-29T20:37:59.850Z,78.67
2022-10-29T20:40:26.736Z,78.85
2022-10-29T20:42:53.224Z,79.46
2022-10-29T20:45:19.896Z,79.31
2022-10-29T20:47:46.596Z,79.31
2022-10-29T20:50:13.260Z,80.34
2022-10-29T20:52:42.236Z,80.79
2022-10-29T20:55:12.323Z,79.52
2022-10-29T20:57:38.845Z,80.45
2022-10-29T21:00:06.070Z,80.29
2022-10-29T21:02:32.561Z,80.97
2022-10-29T21:04:59.111Z,80.75
2022-10-29T21:07:25.555Z,80.26
2022-10-29T21:09:52.044Z,80.48
2022-10-29T21:12:18.481Z,81.21
2022-10-29T21:14:44.914Z,80.78
2022-10-29T21:17:11.411Z,79.53
2022-10-29T21:19:37.890Z,80.36
2022-10-29T21:22:04.346Z,80.09
2022-10-29T21:24:30.840Z,79.75
2022-10-29T21:26:57.313Z,79.65
2022-10-29T21:29:23.832Z,79.81
2022-10-29T21:31:50.421Z,81.04
2022-10-29T21:34:16.923Z,80.63
2022-10-29T21:36:43.413Z,79.67
2022-10-29T21:39:09.918Z,79.18
2022-10-29T21:41:36.378Z,80.51
2022-10-29T21:44:02.833Z,80.80
2022-10-29T21:46:29.311Z,81.04
2022-10-29T21:48:56.484Z,81.66
2022-10-29T21:51:22.977Z,80.97
2022-10-29T21:53:49.485Z,81.44
2022-10-29T21:56:16.020Z,81.33
2022-10-29T21:58:43.025Z,82.26
2022-10-29T22:01:12.081Z,81.71
2022-10-29T22:03:42.456Z,81.76
2022-10-29T22:06:15.455Z,82.64
2022-10-29T22:08:42.188Z,82.47
2022-10-29T22:11:08.797Z,82.69
2022-10-29T22:13:35.776Z,81.46
2022-10-29T22:16:03.403Z,82.57
2022-10-29T22:18:30.583Z,81.73
2022-10-29T22:21:18.416Z,82.12
2022-10-29T22:23:46.984Z,81.67
2022-10-29T22:26:15.200Z,82.54
2022-10-29T22:28:41.848Z,82.45
2022-10-29T22:31:08.606Z,81.58
2022-10-29T22:33:35.570Z,81.80
2022-10-29T22:36:13.053Z,81.85
2022-10-29T22:38:39.764Z,81.51
2022-10-29T22:41:14.175Z,81.84
2022-10-29T22:43:40.892Z,81.54
2022-10-29T22:46:08.963Z,81.45
2022-10-29T22:48:35.869Z,81.36
2022-10-29T22:51:10.282Z,81.91
2022-10-29T22:53:36.725Z,82.18
2022-10-29T22:56:03.667Z,82.35
2022-10-29T22:58:30.275Z,81.59
2022-10-29T23:01:05.774Z,82.09
2022-10-29T23:03:32.959Z,81.44
2022-10-29T23:06:01.171Z,81.45
2022-10-29T23:08:28.189Z,80.37
2022-10-29T23:10:54.957Z,79.98
2022-10-29T23:13:21.435Z,80.24
2022-10-29T23:15:48.669Z,79.88
2022-10-29T23:18:15.183Z,80.56
2022-10-29T23:20:42.204Z,79.42
2022-10-29T23:23:08.684Z,80.19
2022-10-29T23:25:35.347Z,79.30
2022-10-29T23:28:01.832Z,79.58
2022-10-29T23:30:28.284Z,80.76
2022-10-29T23:32:54.916Z,79.80
2022-10-29T23:35:21.686Z,80.24
2022-10-29T23:37:48.145Z,79.65
2022-10-29T23:40:14.751Z,78.60
2022-10-29T23:42:41.222Z,78.32
2022-10-29T23:45:08.287Z,78.89
2022-10-29T23:47:34.729Z,79.11
2022-10-29T23:50:01.184Z,79.73
2022-10-29T23:52:27.624Z,79.24
2022-10-29T23:54:54.077Z,79.19
2022-10-29T23:57:20.512Z,80.12
2022-10-29T23:59:47.069Z,80.19
